Union Center, Wisconsin
Current Conditions -  °F | °C
As of 7:08 PM on Saturday 22 Nov 2014 (Local Time) from KVOK Reporting Station
Haze Haze  
Wind Chill: 36°   Ceiling: 300
Heat Index: 39°   Visibility: 1mi
Dew Point: 39°   Wind: 5mph
Humidity: 100%   Direction: 100°E
Pressure: 29.73"   Gusts: NA
Location:  43.69°N, 90.27°W
Report Text: KVOK 230108Z AUTO 10004KT 1SM R27/2200FT BR VV003 04/04 A2973 RMK AO2 VIS 1V1 1/2
Loading
Personal Weather Stations






























Interactive Weather Map New forecast layout! Learn more

10-Day Weather Forecast

Advertisements
Track Severe Weather on mobile